createdAt,value
2022-12-20T00:02:17.095Z,-5.40
2022-12-20T00:12:22.474Z,-5.20
2022-12-20T00:22:26.350Z,-5.00
2022-12-20T00:32:32.699Z,-4.80
2022-12-20T00:42:36.580Z,-4.70
2022-12-20T00:52:43.429Z,-4.50
2022-12-20T01:02:47.369Z,-4.50
2022-12-20T01:12:52.868Z,-4.40
2022-12-20T01:22:56.597Z,-4.30
2022-12-20T01:33:01.954Z,-4.20
2022-12-20T01:43:06.017Z,-4.10
2022-12-20T01:53:12.401Z,-4.00
2022-12-20T02:03:16.869Z,-4.00
2022-12-20T02:13:33.384Z,-3.80
2022-12-20T02:24:35.705Z,-3.70
2022-12-20T02:34:43.157Z,-3.70
2022-12-20T02:45:09.282Z,-3.70
2022-12-20T02:55:14.643Z,-3.50
2022-12-20T03:05:20.131Z,-3.30
2022-12-20T03:15:25.804Z,-3.20
2022-12-20T03:25:33.056Z,-3.00
2022-12-20T03:35:40.214Z,-2.90
2022-12-20T03:45:46.010Z,-2.80
2022-12-20T03:55:51.443Z,-2.70
2022-12-20T04:05:55.565Z,-2.90
2022-12-20T04:16:01.559Z,-3.40
2022-12-20T04:26:11.131Z,-3.80
2022-12-20T04:36:17.210Z,-4.10
2022-12-20T04:46:21.793Z,-4.50
2022-12-20T04:56:29.872Z,-4.80
2022-12-20T05:06:40.808Z,-4.70
2022-12-20T05:16:46.615Z,-4.70
2022-12-20T05:26:50.544Z,-4.70
2022-12-20T05:36:57.379Z,-4.70
2022-12-20T05:47:05.661Z,-4.70
2022-12-20T05:57:14.714Z,-4.90
2022-12-20T06:07:20.046Z,-5.20
2022-12-20T06:17:29.397Z,-5.40
2022-12-20T06:27:33.577Z,-5.30
2022-12-20T06:38:05.188Z,-5.30
2022-12-20T06:48:12.575Z,-5.10
2022-12-20T06:58:19.671Z,-4.90
2022-12-20T07:08:26.156Z,-4.80
2022-12-20T07:18:32.844Z,-4.70
2022-12-20T07:28:36.459Z,-4.40
2022-12-20T07:38:41.981Z,-4.10
2022-12-20T07:48:46.040Z,-3.40
2022-12-20T07:58:54.212Z,-1.90
2022-12-20T08:09:02.215Z,0.60
2022-12-20T08:19:07.272Z,0.40
2022-12-20T08:29:11.619Z,0.30
2022-12-20T08:39:16.597Z,1.80
2022-12-20T08:49:20.789Z,1.80
2022-12-20T08:59:26.808Z,1.90
2022-12-20T09:09:31.275Z,3.10
2022-12-20T09:19:36.497Z,4.50
2022-12-20T09:29:40.118Z,4.60
2022-12-20T09:39:46.170Z,6.00
2022-12-20T09:49:54.003Z,7.10
2022-12-20T09:59:59.411Z,10.70
2022-12-20T10:10:37.509Z,8.80
2022-12-20T10:21:00.904Z,6.70
2022-12-20T10:31:07.347Z,8.00
2022-12-20T10:41:22.319Z,7.30
2022-12-20T10:51:26.729Z,5.70
2022-12-20T11:01:35.739Z,6.50
2022-12-20T11:11:39.509Z,8.90
2022-12-20T11:21:55.992Z,10.30
2022-12-20T11:32:10.266Z,9.60
2022-12-20T11:42:24.825Z,6.60
2022-12-20T11:52:37.472Z,4.20
2022-12-20T12:02:56.439Z,3.30
2022-12-20T12:13:13.398Z,3.30
2022-12-20T12:23:26.701Z,4.00
2022-12-20T12:33:38.973Z,3.80
2022-12-20T12:43:53.172Z,3.60
2022-12-20T12:54:07.544Z,3.20
2022-12-20T13:04:26.681Z,2.80
2022-12-20T13:14:51.156Z,3.50
2022-12-20T13:24:59.319Z,4.60
2022-12-20T13:35:03.061Z,3.50
2022-12-20T13:45:14.645Z,2.40
2022-12-20T13:55:36.819Z,1.70
2022-12-20T14:05:42.810Z,1.30
2022-12-20T14:15:46.428Z,1.00
2022-12-20T14:25:54.983Z,0.80
2022-12-20T14:36:00.419Z,0.30
2022-12-20T14:46:22.704Z,0.00
2022-12-20T14:56:32.059Z,-0.30
2022-12-20T15:06:43.267Z,-0.40
2022-12-20T15:16:49.895Z,-0.50
2022-12-20T15:26:55.385Z,-0.50
2022-12-20T15:37:00.370Z,-0.50
2022-12-20T15:47:05.739Z,-0.60
2022-12-20T15:57:15.273Z,-0.60
2022-12-20T16:07:20.711Z,-0.70
2022-12-20T16:17:25.701Z,-0.60
2022-12-20T16:27:30.955Z,-0.50
2022-12-20T16:37:38.972Z,-0.50
2022-12-20T16:47:44.385Z,-0.50
2022-12-20T16:57:48.144Z,-0.60
2022-12-20T17:07:53.406Z,-0.80
2022-12-20T17:17:58.192Z,-1.20
2022-12-20T17:28:03.303Z,-1.60
2022-12-20T17:38:08.192Z,-1.80
2022-12-20T17:48:13.446Z,-1.80
2022-12-20T17:58:17.209Z,-1.70
2022-12-20T18:08:22.573Z,-1.60
2022-12-20T18:18:26.749Z,-1.50
2022-12-20T18:28:31.851Z,-1.50
2022-12-20T18:38:36.793Z,-1.50
2022-12-20T18:48:43.091Z,-1.50
2022-12-20T18:58:47.700Z,-1.50
2022-12-20T19:08:53.234Z,-1.40
2022-12-20T19:18:58.749Z,-1.30
2022-12-20T19:29:04.541Z,-1.10
2022-12-20T19:39:14.476Z,-1.10
2022-12-20T19:49:19.829Z,-1.00
2022-12-20T19:59:23.740Z,-1.00
2022-12-20T20:09:29.657Z,-1.10
2022-12-20T20:19:34.014Z,-1.50
2022-12-20T20:29:39.802Z,-2.00
2022-12-20T20:39:43.564Z,-2.50
2022-12-20T20:49:48.833Z,-3.00
2022-12-20T20:59:52.710Z,-3.30
2022-12-20T21:09:58.223Z,-3.60
2022-12-20T21:20:01.923Z,-3.80
2022-12-20T21:30:09.122Z,-3.90
2022-12-20T21:40:15.024Z,-3.80
2022-12-20T21:50:20.356Z,-3.70
2022-12-20T22:00:24.458Z,-3.70
2022-12-20T22:10:30.940Z,-3.70
2022-12-20T22:20:35.701Z,-3.90
2022-12-20T22:30:43.721Z,-4.20
2022-12-20T22:40:47.569Z,-4.40
2022-12-20T22:51:00.592Z,-4.60
2022-12-20T23:01:07.443Z,-4.80
2022-12-20T23:11:42.444Z,-5.00
2022-12-20T23:22:03.692Z,-5.10
2022-12-20T23:32:09.106Z,-5.10
2022-12-20T23:42:12.874Z,-5.20
2022-12-20T23:52:18.305Z,-5.10
